createdAt,value
2018-08-20T00:02:59.792Z,97051.05
2018-08-20T00:06:24.423Z,97042.28
2018-08-20T00:09:49.152Z,97042.89
2018-08-20T00:13:14.454Z,97037.66
2018-08-20T00:16:40.101Z,97033.84
2018-08-20T00:20:05.958Z,97032.72
2018-08-20T00:23:30.610Z,97034.78
2018-08-20T00:26:55.996Z,97029.25
2018-08-20T00:30:20.902Z,97032.31
2018-08-20T00:33:46.768Z,97035.69
2018-08-20T00:37:11.444Z,97036.53
2018-08-20T00:40:36.180Z,97036.22
2018-08-20T00:44:01.476Z,97032.89
2018-08-20T00:47:26.144Z,97038.59
2018-08-20T00:50:50.832Z,97036.07
2018-08-20T00:54:15.506Z,97035.62
2018-08-20T00:57:40.727Z,97036.05
2018-08-20T01:01:06.228Z,97040.24
2018-08-20T01:04:31.794Z,97041.02
2018-08-20T01:07:56.476Z,97045.69
2018-08-20T01:11:21.358Z,97042.41
2018-08-20T01:14:46.900Z,97041.22
2018-08-20T01:18:14.133Z,97039.59
2018-08-20T01:21:38.764Z,97038.33
2018-08-20T01:25:03.511Z,97030.37
2018-08-20T01:28:28.226Z,97030.78
2018-08-20T01:31:52.886Z,97032.95
2018-08-20T01:35:28.274Z,97035.47
2018-08-20T01:38:53.410Z,97028.50
2018-08-20T01:42:19.328Z,97033.55
2018-08-20T01:45:44.578Z,97035.67
2018-08-20T01:49:09.286Z,97038.61
2018-08-20T01:52:35.379Z,97040.98
2018-08-20T01:56:00.098Z,97034.72
2018-08-20T01:59:26.888Z,97030.84
2018-08-20T02:02:54.288Z,97030.00
2018-08-20T02:06:19.997Z,97028.09
2018-08-20T02:09:45.412Z,97032.91
2018-08-20T02:13:10.156Z,97033.83
2018-08-20T02:16:35.651Z,97039.02
2018-08-20T02:20:00.456Z,97041.39
2018-08-20T02:23:25.742Z,97037.77
2018-08-20T02:26:50.707Z,97036.40
2018-08-20T02:30:16.018Z,97038.33
2018-08-20T02:33:40.697Z,97037.59
2018-08-20T02:37:05.504Z,97036.45
2018-08-20T02:40:30.420Z,97036.61
2018-08-20T02:43:55.048Z,97037.82
2018-08-20T02:47:19.879Z,97037.31
2018-08-20T02:50:45.389Z,97035.16
2018-08-20T02:54:10.721Z,97032.52
2018-08-20T03:05:35.067Z,97029.22
2018-08-20T03:08:59.936Z,97026.37
2018-08-20T03:12:26.392Z,97033.01
2018-08-20T03:15:52.390Z,97027.63
2018-08-20T03:19:18.091Z,97026.06
2018-08-20T03:22:44.514Z,97024.67
2018-08-20T03:26:09.994Z,97028.83
2018-08-20T03:29:35.994Z,97023.52
2018-08-20T03:33:01.575Z,97020.29
2018-08-20T03:36:26.495Z,97020.83
2018-08-20T03:39:51.908Z,97028.20
2018-08-20T03:43:16.673Z,97033.89
2018-08-20T03:46:41.341Z,97036.48
2018-08-20T03:50:08.798Z,97035.50
2018-08-20T03:53:33.613Z,97032.53
2018-08-20T03:56:58.338Z,97040.88
2018-08-20T04:00:24.422Z,97033.52
2018-08-20T04:03:49.102Z,97021.94
2018-08-20T04:07:13.816Z,97027.70
2018-08-20T04:10:38.750Z,97023.23
2018-08-20T04:14:03.568Z,97033.05
2018-08-20T04:17:29.996Z,97033.11
2018-08-20T04:20:54.660Z,97031.62
2018-08-20T04:24:24.102Z,97031.47
2018-08-20T04:27:48.877Z,97042.08
2018-08-20T04:31:14.894Z,97043.75
2018-08-20T04:34:40.252Z,97045.30
2018-08-20T04:38:05.580Z,97045.41
2018-08-20T04:41:30.345Z,97038.39
2018-08-20T04:44:55.000Z,97037.28
2018-08-20T04:48:19.652Z,97043.12
2018-08-20T04:51:45.527Z,97047.10
2018-08-20T04:55:10.420Z,97046.34
2018-08-20T04:58:38.129Z,97045.66
2018-08-20T05:02:02.848Z,97036.00
2018-08-20T05:05:27.730Z,97039.23
2018-08-20T05:08:52.382Z,97048.41
2018-08-20T05:12:17.162Z,97041.09
2018-08-20T05:15:41.796Z,97045.41
2018-08-20T05:19:06.607Z,97049.86
2018-08-20T05:22:31.944Z,97054.93
2018-08-20T05:25:57.382Z,97057.91
2018-08-20T05:29:23.117Z,97062.86
2018-08-20T05:32:47.771Z,97065.70
2018-08-20T05:36:12.533Z,97069.13
2018-08-20T05:39:37.214Z,97066.87
2018-08-20T05:43:03.517Z,97067.69
2018-08-20T05:46:28.209Z,97070.92
2018-08-20T05:49:53.012Z,97071.20
2018-08-20T05:53:18.877Z,97070.34
2018-08-20T05:56:44.362Z,97061.59
2018-08-20T06:00:16.086Z,97071.28
2018-08-20T06:03:42.169Z,97063.90
2018-08-20T06:07:06.875Z,97069.41
2018-08-20T06:10:32.033Z,97077.57
2018-08-20T06:13:57.052Z,97077.63
2018-08-20T06:17:22.463Z,97077.83
2018-08-20T06:20:47.225Z,97073.42
2018-08-20T06:24:12.466Z,97064.08
2018-08-20T06:27:37.366Z,97065.61
2018-08-20T06:31:02.066Z,97052.08
2018-08-20T06:34:28.398Z,97065.94
2018-08-20T06:37:53.154Z,97061.69
2018-08-20T06:41:18.470Z,97063.20
2018-08-20T06:44:43.195Z,97062.66
2018-08-20T06:48:08.137Z,97066.58
2018-08-20T06:51:33.034Z,97075.97
2018-08-20T06:54:58.245Z,97067.52
2018-08-20T06:58:23.124Z,97070.17
2018-08-20T07:01:47.963Z,97064.59
2018-08-20T07:05:13.330Z,97065.49
2018-08-20T07:08:38.110Z,97071.39
2018-08-20T07:12:02.855Z,97061.95
2018-08-20T07:15:28.045Z,97059.72
2018-08-20T07:18:53.200Z,97057.89
2018-08-20T07:22:19.436Z,97055.34
2018-08-20T07:25:44.184Z,97054.95
2018-08-20T07:29:08.850Z,97059.02
2018-08-20T07:32:34.340Z,97064.14
2018-08-20T07:35:58.974Z,97065.49
2018-08-20T07:39:23.662Z,97062.03
2018-08-20T07:42:48.431Z,97055.17
2018-08-20T07:46:14.379Z,97052.98
2018-08-20T07:49:39.162Z,97055.98
2018-08-20T07:53:04.379Z,97053.06
2018-08-20T07:56:30.141Z,97056.42
2018-08-20T07:59:54.820Z,97054.72
2018-08-20T08:03:25.420Z,97053.77
2018-08-20T08:06:50.182Z,97052.30
2018-08-20T08:10:16.952Z,97053.87
2018-08-20T08:13:42.764Z,97050.60
2018-08-20T08:17:07.772Z,97048.42
2018-08-20T08:20:32.430Z,97048.43
2018-08-20T08:24:00.041Z,97039.72
2018-08-20T08:27:24.922Z,97044.53
2018-08-20T08:30:50.791Z,97037.44
2018-08-20T08:34:15.440Z,97039.95
2018-08-20T08:37:40.340Z,97034.79
2018-08-20T08:41:06.628Z,97029.61
2018-08-20T08:44:31.311Z,97033.79
2018-08-20T08:47:56.786Z,97031.00
2018-08-20T08:51:21.960Z,97032.05
2018-08-20T08:54:47.296Z,97035.25
2018-08-20T08:58:12.106Z,97034.00
2018-08-20T09:01:36.921Z,97040.02
2018-08-20T09:05:03.157Z,97041.40
2018-08-20T09:08:29.332Z,97040.45
2018-08-20T09:11:55.654Z,97036.42
2018-08-20T09:15:21.077Z,97038.76
2018-08-20T09:18:45.879Z,97036.42
2018-08-20T09:22:10.622Z,97037.33
2018-08-20T09:25:35.819Z,97026.27
2018-08-20T09:29:00.484Z,97024.64
2018-08-20T09:32:26.081Z,97023.05
2018-08-20T09:35:50.774Z,97027.64
2018-08-20T09:39:16.544Z,97026.17
2018-08-20T09:42:42.858Z,97019.70
2018-08-20T09:46:07.575Z,97012.66
2018-08-20T09:49:32.270Z,97015.28
2018-08-20T09:52:56.887Z,97022.53
2018-08-20T09:56:22.202Z,97016.88
2018-08-20T09:59:48.792Z,97005.86
2018-08-20T10:03:13.489Z,97004.89
2018-08-20T10:06:38.316Z,96998.31
2018-08-20T10:10:02.974Z,97003.08
2018-08-20T10:13:27.740Z,96994.55
2018-08-20T10:16:53.142Z,97008.82
2018-08-20T10:20:18.792Z,97009.45
2018-08-20T10:23:43.450Z,97003.97
2018-08-20T10:27:08.089Z,97004.57
2018-08-20T10:30:32.811Z,96998.61
2018-08-20T10:33:58.565Z,97000.42
2018-08-20T10:37:26.919Z,97001.16
2018-08-20T10:40:51.666Z,96999.16
2018-08-20T10:44:19.422Z,96988.05
2018-08-20T10:47:45.895Z,96987.05
2018-08-20T10:51:10.586Z,96996.68
2018-08-20T10:54:35.242Z,96989.78
2018-08-20T10:57:59.957Z,96991.14
2018-08-20T11:01:25.889Z,96984.40
2018-08-20T11:04:55.730Z,96978.36
2018-08-20T11:08:20.477Z,96982.52
2018-08-20T11:11:45.202Z,96982.87
2018-08-20T11:15:11.327Z,96972.39
2018-08-20T11:18:37.037Z,96969.55
2018-08-20T11:22:03.063Z,96965.91
2018-08-20T11:25:27.916Z,96963.07
2018-08-20T11:28:52.645Z,96962.23
2018-08-20T11:32:17.308Z,96959.94
2018-08-20T11:35:42.179Z,96960.93
2018-08-20T11:39:08.082Z,96957.61
2018-08-20T11:42:33.468Z,96961.80
2018-08-20T11:45:58.291Z,96959.75
2018-08-20T11:49:24.626Z,96956.15
2018-08-20T11:52:49.347Z,96950.37
2018-08-20T11:56:15.535Z,96949.15
2018-08-20T11:59:41.205Z,96944.83
2018-08-20T12:03:06.496Z,96937.15
2018-08-20T12:06:32.369Z,96945.31
2018-08-20T12:09:57.005Z,96940.28
2018-08-20T12:13:21.701Z,96943.09
2018-08-20T12:16:47.237Z,96937.97
2018-08-20T12:20:11.988Z,96936.03
2018-08-20T12:23:36.693Z,96931.39
2018-08-20T12:27:01.521Z,96934.55
2018-08-20T12:30:26.271Z,96928.24
2018-08-20T12:33:51.059Z,96923.24
2018-08-20T12:37:15.701Z,96925.93
2018-08-20T12:40:40.383Z,96923.41
2018-08-20T12:44:05.981Z,96918.58
2018-08-20T12:47:31.259Z,96925.97
2018-08-20T12:50:56.557Z,96917.73
2018-08-20T12:54:21.181Z,96918.11
2018-08-20T12:57:46.598Z,96915.83
2018-08-20T13:01:11.304Z,96902.78
2018-08-20T13:04:35.890Z,96904.06
2018-08-20T13:08:00.679Z,96901.63
2018-08-20T13:11:25.424Z,96892.48
2018-08-20T13:14:50.067Z,96889.37
2018-08-20T13:18:14.761Z,96887.34
2018-08-20T13:21:39.447Z,96883.36
2018-08-20T13:25:04.177Z,96880.19
2018-08-20T13:28:28.850Z,96885.08
2018-08-20T13:31:53.624Z,96881.37
2018-08-20T13:35:18.338Z,96880.16
2018-08-20T13:38:43.977Z,96867.52
2018-08-20T13:42:10.285Z,96870.37
2018-08-20T13:45:35.828Z,96862.81
2018-08-20T13:49:00.539Z,96857.70
2018-08-20T13:52:25.228Z,96847.55
2018-08-20T13:55:50.455Z,96842.73
2018-08-20T13:59:15.164Z,96846.22
2018-08-20T14:02:40.002Z,96847.12
2018-08-20T14:06:05.861Z,96846.00
2018-08-20T14:09:30.613Z,96839.08
2018-08-20T14:12:55.381Z,96841.06
2018-08-20T14:16:20.729Z,96842.81
2018-08-20T14:19:46.191Z,96834.44
2018-08-20T14:23:11.073Z,96830.08
2018-08-20T14:26:35.745Z,96823.63
2018-08-20T14:30:01.469Z,96825.16
2018-08-20T14:33:26.120Z,96821.00
2018-08-20T14:36:52.340Z,96822.58
2018-08-20T14:40:19.008Z,96808.53
2018-08-20T14:43:44.295Z,96805.58
2018-08-20T14:47:09.025Z,96804.12
2018-08-20T14:50:33.754Z,96807.64
2018-08-20T14:53:59.181Z,96806.00
2018-08-20T14:57:23.881Z,96805.38
2018-08-20T15:00:48.658Z,96798.73
2018-08-20T15:04:14.075Z,96790.41
2018-08-20T15:07:39.711Z,96794.06
2018-08-20T15:11:04.385Z,96792.63
2018-08-20T15:14:29.091Z,96788.94
2018-08-20T15:17:53.712Z,96776.44
2018-08-20T15:21:19.044Z,96779.11
2018-08-20T15:24:44.747Z,96775.47
2018-08-20T15:28:09.468Z,96773.55
2018-08-20T15:31:34.766Z,96770.17
2018-08-20T15:35:02.298Z,96769.87
2018-08-20T15:38:27.040Z,96774.70
2018-08-20T15:41:51.810Z,96771.81
2018-08-20T15:45:16.515Z,96768.56
2018-08-20T15:48:42.178Z,96769.59
2018-08-20T15:52:07.082Z,96766.64
2018-08-20T15:55:31.768Z,96764.84
2018-08-20T15:58:56.551Z,96753.24
2018-08-20T16:02:21.212Z,96759.29
2018-08-20T16:05:45.917Z,96755.23
2018-08-20T16:09:11.780Z,96756.38
2018-08-20T16:12:36.657Z,96755.66
2018-08-20T16:16:01.456Z,96753.09
2018-08-20T16:19:26.830Z,96741.14
2018-08-20T16:22:51.523Z,96747.48
2018-08-20T16:26:17.245Z,96740.17
2018-08-20T16:29:43.657Z,96736.63
2018-08-20T16:33:08.999Z,96737.26
2018-08-20T16:36:35.855Z,96731.77
2018-08-20T16:40:02.698Z,96737.78
2018-08-20T16:43:27.525Z,96741.91
2018-08-20T16:46:52.410Z,96738.48
2018-08-20T16:50:17.210Z,96734.48
2018-08-20T16:53:42.043Z,96730.30
2018-08-20T16:57:07.155Z,96732.70
2018-08-20T17:00:32.840Z,96733.80
2018-08-20T17:03:58.251Z,96735.91
2018-08-20T17:07:24.068Z,96734.61
2018-08-20T17:10:49.024Z,96736.83
2018-08-20T17:14:13.816Z,96732.27
2018-08-20T17:17:41.027Z,96733.27
2018-08-20T17:21:08.867Z,96736.77
2018-08-20T17:24:38.547Z,96741.52
2018-08-20T17:28:04.187Z,96735.37
2018-08-20T17:31:28.931Z,96736.34
2018-08-20T17:34:54.848Z,96742.95
2018-08-20T17:38:19.564Z,96743.98
2018-08-20T17:41:45.276Z,96754.25
2018-08-20T17:45:10.917Z,96754.20
2018-08-20T17:48:35.707Z,96755.58
2018-08-20T17:52:00.970Z,96760.77
2018-08-20T17:55:26.931Z,96762.42
2018-08-20T17:59:01.326Z,96761.30
2018-08-20T18:02:27.538Z,96764.89
2018-08-20T18:05:55.940Z,96771.51
2018-08-20T18:09:22.575Z,96774.43
2018-08-20T18:12:48.082Z,96780.27
2018-08-20T18:16:15.942Z,96782.14
2018-08-20T18:19:40.781Z,96783.09
2018-08-20T18:23:06.105Z,96792.39
2018-08-20T18:26:35.865Z,96784.26
2018-08-20T18:30:00.871Z,96787.72
2018-08-20T18:33:28.197Z,96794.10
2018-08-20T18:36:53.191Z,96797.91
2018-08-20T18:40:19.323Z,96795.09
2018-08-20T18:43:44.800Z,96800.41
2018-08-20T18:47:11.447Z,96807.73
2018-08-20T18:50:36.540Z,96809.81
2018-08-20T18:54:01.311Z,96810.46
2018-08-20T18:57:34.680Z,96817.50
2018-08-20T19:00:59.836Z,96823.14
2018-08-20T19:04:25.111Z,96834.95
2018-08-20T19:07:49.902Z,96832.45
2018-08-20T19:11:14.672Z,96841.60
2018-08-20T19:14:39.374Z,96843.25
2018-08-20T19:18:04.325Z,96845.88
2018-08-20T19:21:30.683Z,96849.34
2018-08-20T19:24:57.094Z,96853.02
2018-08-20T19:28:24.621Z,96854.81
2018-08-20T19:31:49.481Z,96856.47
2018-08-20T19:35:15.045Z,96855.96
2018-08-20T19:38:41.184Z,96862.63
2018-08-20T19:42:06.500Z,96861.27
2018-08-20T19:45:35.312Z,96866.45
2018-08-20T19:49:05.692Z,96874.20
2018-08-20T19:52:31.891Z,96876.49
2018-08-20T19:55:56.568Z,96877.83
2018-08-20T19:59:30.820Z,96882.79
2018-08-20T20:02:55.527Z,96883.37
2018-08-20T20:06:20.894Z,96883.70
2018-08-20T20:09:45.592Z,96883.33
2018-08-20T20:13:11.707Z,96887.30
2018-08-20T20:16:41.620Z,96886.50
2018-08-20T20:20:07.236Z,96890.10
2018-08-20T20:23:31.966Z,96889.81
2018-08-20T20:26:56.761Z,96889.32
2018-08-20T20:30:22.398Z,96890.47
2018-08-20T20:33:47.081Z,96896.61
2018-08-20T20:37:11.728Z,96889.61
2018-08-20T20:40:36.418Z,96898.26
2018-08-20T20:44:01.683Z,96904.19
2018-08-20T20:47:27.592Z,96899.20
2018-08-20T20:50:53.115Z,96901.72
2018-08-20T20:54:18.062Z,96909.18
2018-08-20T20:57:42.702Z,96912.05
2018-08-20T21:01:08.888Z,96917.00
2018-08-20T21:04:36.526Z,96918.22
2018-08-20T21:08:01.270Z,96920.13
2018-08-20T21:11:25.950Z,96926.05
2018-08-20T21:14:50.665Z,96926.19
2018-08-20T21:18:15.941Z,96930.34
2018-08-20T21:21:41.249Z,96934.67
2018-08-20T21:25:07.905Z,96932.41
2018-08-20T21:28:39.392Z,96934.13
2018-08-20T21:32:04.753Z,96933.45
2018-08-20T21:35:29.432Z,96935.48
2018-08-20T21:38:56.662Z,96944.50
2018-08-20T21:42:31.082Z,96945.34
2018-08-20T21:45:57.551Z,96949.20
2018-08-20T21:49:22.908Z,96949.67
2018-08-20T21:52:49.024Z,96953.78
2018-08-20T21:56:13.928Z,96950.36
2018-08-20T21:59:38.634Z,96950.34
2018-08-20T22:03:03.394Z,96956.50
2018-08-20T22:06:28.153Z,96957.50
2018-08-20T22:09:53.118Z,96960.45
2018-08-20T22:13:18.421Z,96961.42
2018-08-20T22:16:43.173Z,96962.73
2018-08-20T22:20:08.578Z,96962.08
2018-08-20T22:23:39.182Z,96961.36
2018-08-20T22:26:58.650Z,96969.80
2018-08-20T22:30:23.443Z,96965.10
2018-08-20T22:33:58.717Z,96966.70
2018-08-20T22:37:23.337Z,96964.46
2018-08-20T22:40:49.793Z,96967.13
2018-08-20T22:44:14.451Z,96960.72
2018-08-20T22:47:39.255Z,96965.46
2018-08-20T22:51:14.207Z,96965.84
2018-08-20T22:54:38.869Z,96966.11
2018-08-20T22:58:18.617Z,96958.53
2018-08-20T23:01:43.324Z,96961.42
2018-08-20T23:05:12.712Z,96964.29
2018-08-20T23:08:39.339Z,96963.23
2018-08-20T23:12:05.084Z,96963.07
2018-08-20T23:15:29.733Z,96965.58
2018-08-20T23:18:55.511Z,96962.87
2018-08-20T23:22:20.377Z,96961.49
2018-08-20T23:25:47.325Z,96966.89
2018-08-20T23:29:12.295Z,96972.19
2018-08-20T23:32:37.055Z,96972.86
2018-08-20T23:36:01.790Z,96960.79
2018-08-20T23:39:26.455Z,96958.95
2018-08-20T23:42:51.188Z,96964.82
2018-08-20T23:46:31.296Z,96967.03
2018-08-20T23:49:56.480Z,96968.64
2018-08-20T23:53:22.819Z,96967.17
2018-08-20T23:56:48.515Z,96963.61
